sensor_id;sensor_type;location;lat;lon;timestamp;P1;durP1;ratioP1;P2;durP2;ratioP2
12519;SDS011;6325;49.540;8.364;2023-04-15T00:02:15;3.73;;;3.17;;
12519;SDS011;6325;49.540;8.364;2023-04-15T00:04:42;4.10;;;3.53;;
12519;SDS011;6325;49.540;8.364;2023-04-15T00:07:11;4.45;;;3.30;;
12519;SDS011;6325;49.540;8.364;2023-04-15T00:09:39;3.67;;;3.10;;
12519;SDS011;6325;49.540;8.364;2023-04-15T00:12:06;4.73;;;3.70;;
12519;SDS011;6325;49.540;8.364;2023-04-15T00:14:34;3.72;;;3.40;;
12519;SDS011;6325;49.540;8.364;2023-04-15T00:17:01;3.65;;;3.17;;
12519;SDS011;6325;49.540;8.364;2023-04-15T00:19:29;4.70;;;3.38;;
12519;SDS011;6325;49.540;8.364;2023-04-15T00:21:56;3.87;;;3.23;;
12519;SDS011;6325;49.540;8.364;2023-04-15T00:24:24;4.32;;;3.38;;
12519;SDS011;6325;49.540;8.364;2023-04-15T00:26:51;4.20;;;3.80;;
12519;SDS011;6325;49.540;8.364;2023-04-15T00:29:18;4.07;;;3.40;;
12519;SDS011;6325;49.540;8.364;2023-04-15T00:31:45;4.32;;;3.58;;
12519;SDS011;6325;49.540;8.364;2023-04-15T00:34:12;3.65;;;3.10;;
12519;SDS011;6325;49.540;8.364;2023-04-15T00:36:39;3.80;;;3.40;;
12519;SDS011;6325;49.540;8.364;2023-04-15T00:39:06;4.90;;;3.35;;
12519;SDS011;6325;49.540;8.364;2023-04-15T00:41:35;4.18;;;3.60;;
12519;SDS011;6325;49.540;8.364;2023-04-15T00:44:04;3.60;;;3.25;;
12519;SDS011;6325;49.540;8.364;2023-04-15T00:46:31;4.57;;;3.33;;
12519;SDS011;6325;49.540;8.364;2023-04-15T00:49:07;3.57;;;3.10;;
12519;SDS011;6325;49.540;8.364;2023-04-15T00:51:35;4.55;;;3.65;;
12519;SDS011;6325;49.540;8.364;2023-04-15T00:54:02;4.45;;;3.40;;
12519;SDS011;6325;49.540;8.364;2023-04-15T00:56:29;3.58;;;3.28;;
12519;SDS011;6325;49.540;8.364;2023-04-15T00:58:58;3.78;;;3.40;;
12519;SDS011;6325;49.540;8.364;2023-04-15T01:01:26;3.85;;;3.40;;
12519;SDS011;6325;49.540;8.364;2023-04-15T01:03:54;3.58;;;3.28;;
12519;SDS011;6325;49.540;8.364;2023-04-15T01:06:22;3.78;;;3.47;;
12519;SDS011;6325;49.540;8.364;2023-04-15T01:08:51;3.42;;;3.13;;
12519;SDS011;6325;49.540;8.364;2023-04-15T01:11:18;3.70;;;3.20;;
12519;SDS011;6325;49.540;8.364;2023-04-15T01:13:45;3.70;;;3.40;;
12519;SDS011;6325;49.540;8.364;2023-04-15T01:16:13;4.28;;;3.20;;
12519;SDS011;6325;49.540;8.364;2023-04-15T01:18:41;4.97;;;3.75;;
12519;SDS011;6325;49.540;8.364;2023-04-15T01:21:09;3.93;;;3.20;;
12519;SDS011;6325;49.540;8.364;2023-04-15T01:23:36;3.50;;;3.20;;
12519;SDS011;6325;49.540;8.364;2023-04-15T01:26:05;3.47;;;3.17;;
12519;SDS011;6325;49.540;8.364;2023-04-15T01:28:33;4.70;;;3.58;;
12519;SDS011;6325;49.540;8.364;2023-04-15T01:31:06;3.92;;;3.30;;
12519;SDS011;6325;49.540;8.364;2023-04-15T01:33:33;3.70;;;3.35;;
12519;SDS011;6325;49.540;8.364;2023-04-15T01:36:00;3.00;;;2.80;;
12519;SDS011;6325;49.540;8.364;2023-04-15T01:38:27;3.58;;;3.10;;
12519;SDS011;6325;49.540;8.364;2023-04-15T01:40:56;3.87;;;3.40;;
12519;SDS011;6325;49.540;8.364;2023-04-15T01:43:24;3.30;;;3.00;;
12519;SDS011;6325;49.540;8.364;2023-04-15T01:45:52;3.60;;;3.30;;
12519;SDS011;6325;49.540;8.364;2023-04-15T01:48:19;4.78;;;3.60;;
12519;SDS011;6325;49.540;8.364;2023-04-15T01:50:46;3.58;;;3.28;;
12519;SDS011;6325;49.540;8.364;2023-04-15T01:53:13;4.10;;;3.20;;
12519;SDS011;6325;49.540;8.364;2023-04-15T01:55:40;3.37;;;3.07;;
12519;SDS011;6325;49.540;8.364;2023-04-15T01:58:08;3.10;;;2.80;;
12519;SDS011;6325;49.540;8.364;2023-04-15T02:00:36;3.45;;;3.05;;
12519;SDS011;6325;49.540;8.364;2023-04-15T02:03:03;3.30;;;3.00;;
12519;SDS011;6325;49.540;8.364;2023-04-15T02:05:30;3.30;;;2.80;;
12519;SDS011;6325;49.540;8.364;2023-04-15T02:07:57;3.55;;;3.22;;
12519;SDS011;6325;49.540;8.364;2023-04-15T02:10:24;3.63;;;3.13;;
12519;SDS011;6325;49.540;8.364;2023-04-15T02:12:52;3.53;;;3.08;;
12519;SDS011;6325;49.540;8.364;2023-04-15T02:15:19;4.05;;;3.20;;
12519;SDS011;6325;49.540;8.364;2023-04-15T02:17:47;3.05;;;2.75;;
12519;SDS011;6325;49.540;8.364;2023-04-15T02:20:17;3.25;;;2.95;;
12519;SDS011;6325;49.540;8.364;2023-04-15T02:22:46;3.50;;;3.00;;
12519;SDS011;6325;49.540;8.364;2023-04-15T02:25:13;3.35;;;2.78;;
12519;SDS011;6325;49.540;8.364;2023-04-15T02:27:41;4.15;;;3.00;;
12519;SDS011;6325;49.540;8.364;2023-04-15T02:30:08;4.05;;;3.17;;
12519;SDS011;6325;49.540;8.364;2023-04-15T02:32:35;3.10;;;2.75;;
12519;SDS011;6325;49.540;8.364;2023-04-15T02:35:04;4.05;;;2.97;;
12519;SDS011;6325;49.540;8.364;2023-04-15T02:37:34;3.40;;;3.10;;
12519;SDS011;6325;49.540;8.364;2023-04-15T02:40:06;3.10;;;2.90;;
12519;SDS011;6325;49.540;8.364;2023-04-15T02:42:34;2.88;;;2.60;;
12519;SDS011;6325;49.540;8.364;2023-04-15T02:45:01;3.07;;;2.77;;
12519;SDS011;6325;49.540;8.364;2023-04-15T02:47:28;3.60;;;2.53;;
12519;SDS011;6325;49.540;8.364;2023-04-15T02:49:55;3.53;;;3.00;;
12519;SDS011;6325;49.540;8.364;2023-04-15T02:52:25;2.80;;;2.60;;
12519;SDS011;6325;49.540;8.364;2023-04-15T02:54:52;2.60;;;2.40;;
12519;SDS011;6325;49.540;8.364;2023-04-15T02:57:22;2.83;;;2.50;;
12519;SDS011;6325;49.540;8.364;2023-04-15T02:59:49;3.03;;;2.63;;
12519;SDS011;6325;49.540;8.364;2023-04-15T03:02:15;3.92;;;3.03;;
12519;SDS011;6325;49.540;8.364;2023-04-15T03:04:42;3.15;;;2.85;;
12519;SDS011;6325;49.540;8.364;2023-04-15T03:07:09;3.38;;;2.90;;
12519;SDS011;6325;49.540;8.364;2023-04-15T03:09:37;2.90;;;2.60;;
12519;SDS011;6325;49.540;8.364;2023-04-15T03:12:05;2.72;;;2.53;;
12519;SDS011;6325;49.540;8.364;2023-04-15T03:14:32;2.70;;;2.50;;
12519;SDS011;6325;49.540;8.364;2023-04-15T03:16:59;2.90;;;2.70;;
12519;SDS011;6325;49.540;8.364;2023-04-15T03:19:26;3.05;;;2.85;;
12519;SDS011;6325;49.540;8.364;2023-04-15T03:21:53;3.17;;;2.88;;
12519;SDS011;6325;49.540;8.364;2023-04-15T03:24:20;3.75;;;2.97;;
12519;SDS011;6325;49.540;8.364;2023-04-15T03:26:48;3.08;;;2.72;;
12519;SDS011;6325;49.540;8.364;2023-04-15T03:29:15;2.90;;;2.70;;
12519;SDS011;6325;49.540;8.364;2023-04-15T03:31:42;3.67;;;3.15;;
12519;SDS011;6325;49.540;8.364;2023-04-15T03:34:09;2.80;;;2.60;;
12519;SDS011;6325;49.540;8.364;2023-04-15T03:36:36;3.50;;;2.78;;
12519;SDS011;6325;49.540;8.364;2023-04-15T03:39:03;3.08;;;2.70;;
12519;SDS011;6325;49.540;8.364;2023-04-15T03:41:30;2.70;;;2.50;;
12519;SDS011;6325;49.540;8.364;2023-04-15T03:43:59;3.00;;;2.80;;
12519;SDS011;6325;49.540;8.364;2023-04-15T03:46:26;3.42;;;2.97;;
12519;SDS011;6325;49.540;8.364;2023-04-15T03:48:52;3.15;;;2.88;;
12519;SDS011;6325;49.540;8.364;2023-04-15T03:51:19;3.20;;;2.90;;
12519;SDS011;6325;49.540;8.364;2023-04-15T03:53:46;2.80;;;2.60;;
12519;SDS011;6325;49.540;8.364;2023-04-15T03:56:13;3.42;;;3.03;;
12519;SDS011;6325;49.540;8.364;2023-04-15T03:58:40;3.30;;;2.92;;
12519;SDS011;6325;49.540;8.364;2023-04-15T04:01:08;3.60;;;3.28;;
12519;SDS011;6325;49.540;8.364;2023-04-15T04:03:36;3.65;;;3.10;;
12519;SDS011;6325;49.540;8.364;2023-04-15T04:06:03;3.13;;;2.83;;
12519;SDS011;6325;49.540;8.364;2023-04-15T04:08:30;3.63;;;3.22;;
12519;SDS011;6325;49.540;8.364;2023-04-15T04:10:57;4.47;;;3.35;;
12519;SDS011;6325;49.540;8.364;2023-04-15T04:13:23;4.03;;;3.23;;
12519;SDS011;6325;49.540;8.364;2023-04-15T04:15:50;3.47;;;3.17;;
12519;SDS011;6325;49.540;8.364;2023-04-15T04:18:19;5.10;;;3.10;;
12519;SDS011;6325;49.540;8.364;2023-04-15T04:20:46;4.17;;;3.30;;
12519;SDS011;6325;49.540;8.364;2023-04-15T04:23:13;3.72;;;3.30;;
12519;SDS011;6325;49.540;8.364;2023-04-15T04:25:40;4.78;;;3.70;;
12519;SDS011;6325;49.540;8.364;2023-04-15T04:28:07;3.92;;;3.50;;
12519;SDS011;6325;49.540;8.364;2023-04-15T04:30:35;3.57;;;3.27;;
12519;SDS011;6325;49.540;8.364;2023-04-15T04:33:02;3.78;;;3.42;;
12519;SDS011;6325;49.540;8.364;2023-04-15T04:35:30;4.07;;;3.40;;
12519;SDS011;6325;49.540;8.364;2023-04-15T04:37:59;3.58;;;3.10;;
12519;SDS011;6325;49.540;8.364;2023-04-15T04:40:25;4.28;;;3.40;;
12519;SDS011;6325;49.540;8.364;2023-04-15T04:42:53;4.65;;;3.70;;
12519;SDS011;6325;49.540;8.364;2023-04-15T04:45:20;4.63;;;3.70;;
12519;SDS011;6325;49.540;8.364;2023-04-15T04:47:46;3.83;;;3.38;;
12519;SDS011;6325;49.540;8.364;2023-04-15T04:50:13;3.63;;;3.30;;
12519;SDS011;6325;49.540;8.364;2023-04-15T04:52:42;4.72;;;3.67;;
12519;SDS011;6325;49.540;8.364;2023-04-15T04:55:09;4.47;;;3.55;;
12519;SDS011;6325;49.540;8.364;2023-04-15T04:57:35;5.03;;;3.47;;
12519;SDS011;6325;49.540;8.364;2023-04-15T05:00:04;4.72;;;3.53;;
12519;SDS011;6325;49.540;8.364;2023-04-15T05:02:32;4.57;;;3.75;;
12519;SDS011;6325;49.540;8.364;2023-04-15T05:05:00;4.40;;;3.60;;
12519;SDS011;6325;49.540;8.364;2023-04-15T05:07:27;4.05;;;3.50;;
12519;SDS011;6325;49.540;8.364;2023-04-15T05:09:55;5.22;;;3.70;;
12519;SDS011;6325;49.540;8.364;2023-04-15T05:12:22;4.03;;;3.63;;
12519;SDS011;6325;49.540;8.364;2023-04-15T05:14:49;3.97;;;3.55;;
12519;SDS011;6325;49.540;8.364;2023-04-15T05:17:16;3.60;;;3.30;;
12519;SDS011;6325;49.540;8.364;2023-04-15T05:19:43;4.75;;;3.80;;
12519;SDS011;6325;49.540;8.364;2023-04-15T05:22:10;5.13;;;3.65;;
12519;SDS011;6325;49.540;8.364;2023-04-15T05:24:37;4.10;;;3.33;;
12519;SDS011;6325;49.540;8.364;2023-04-15T05:27:06;4.15;;;3.75;;
12519;SDS011;6325;49.540;8.364;2023-04-15T05:29:34;3.90;;;3.50;;
12519;SDS011;6325;49.540;8.364;2023-04-15T05:32:01;4.03;;;3.63;;
12519;SDS011;6325;49.540;8.364;2023-04-15T05:34:28;4.20;;;3.80;;
12519;SDS011;6325;49.540;8.364;2023-04-15T05:36:55;3.97;;;3.58;;
12519;SDS011;6325;49.540;8.364;2023-04-15T05:39:22;3.88;;;3.45;;
12519;SDS011;6325;49.540;8.364;2023-04-15T05:41:49;3.88;;;3.45;;
12519;SDS011;6325;49.540;8.364;2023-04-15T05:44:17;4.78;;;3.90;;
12519;SDS011;6325;49.540;8.364;2023-04-15T05:46:44;4.18;;;3.78;;
12519;SDS011;6325;49.540;8.364;2023-04-15T05:49:11;4.57;;;3.92;;
12519;SDS011;6325;49.540;8.364;2023-04-15T05:51:38;4.93;;;3.60;;
12519;SDS011;6325;49.540;8.364;2023-04-15T05:54:05;4.17;;;3.77;;
12519;SDS011;6325;49.540;8.364;2023-04-15T05:56:32;3.92;;;3.50;;
12519;SDS011;6325;49.540;8.364;2023-04-15T05:58:59;4.00;;;3.63;;
12519;SDS011;6325;49.540;8.364;2023-04-15T06:01:27;4.55;;;3.88;;
12519;SDS011;6325;49.540;8.364;2023-04-15T06:03:54;3.53;;;3.05;;
12519;SDS011;6325;49.540;8.364;2023-04-15T06:06:21;4.10;;;3.57;;
12519;SDS011;6325;49.540;8.364;2023-04-15T06:08:53;4.03;;;3.40;;
12519;SDS011;6325;49.540;8.364;2023-04-15T06:11:19;3.42;;;3.00;;
12519;SDS011;6325;49.540;8.364;2023-04-15T06:13:49;3.10;;;2.90;;
12519;SDS011;6325;49.540;8.364;2023-04-15T06:16:38;3.43;;;3.13;;
12519;SDS011;6325;49.540;8.364;2023-04-15T06:19:38;3.92;;;3.40;;
12519;SDS011;6325;49.540;8.364;2023-04-15T06:22:19;4.10;;;3.60;;
12519;SDS011;6325;49.540;8.364;2023-04-15T06:28:14;3.70;;;3.30;;
12519;SDS011;6325;49.540;8.364;2023-04-15T06:37:49;3.75;;;3.40;;
12519;SDS011;6325;49.540;8.364;2023-04-15T06:40:39;3.50;;;3.20;;
12519;SDS011;6325;49.540;8.364;2023-04-15T06:43:42;3.72;;;3.28;;
12519;SDS011;6325;49.540;8.364;2023-04-15T06:46:42;3.40;;;3.10;;
12519;SDS011;6325;49.540;8.364;2023-04-15T06:49:50;3.60;;;3.30;;
12519;SDS011;6325;49.540;8.364;2023-04-15T06:52:43;4.75;;;3.83;;
12519;SDS011;6325;49.540;8.364;2023-04-15T06:55:53;5.20;;;3.65;;
12519;SDS011;6325;49.540;8.364;2023-04-15T07:02:33;3.78;;;3.47;;
12519;SDS011;6325;49.540;8.364;2023-04-15T07:12:15;3.83;;;3.47;;
12519;SDS011;6325;49.540;8.364;2023-04-15T07:22:21;3.95;;;3.40;;
12519;SDS011;6325;49.540;8.364;2023-04-15T07:28:20;3.83;;;3.50;;
12519;SDS011;6325;49.540;8.364;2023-04-15T07:32:49;3.72;;;3.20;;
12519;SDS011;6325;49.540;8.364;2023-04-15T07:35:38;3.63;;;3.40;;
12519;SDS011;6325;49.540;8.364;2023-04-15T07:51:23;3.72;;;3.42;;
12519;SDS011;6325;49.540;8.364;2023-04-15T07:54:14;3.80;;;3.50;;
12519;SDS011;6325;49.540;8.364;2023-04-15T07:57:23;3.40;;;3.10;;
12519;SDS011;6325;49.540;8.364;2023-04-15T08:00:14;3.40;;;3.10;;
12519;SDS011;6325;49.540;8.364;2023-04-15T08:07:11;3.60;;;3.30;;
12519;SDS011;6325;49.540;8.364;2023-04-15T08:10:11;3.20;;;2.90;;
12519;SDS011;6325;49.540;8.364;2023-04-15T08:13:24;3.90;;;3.28;;
12519;SDS011;6325;49.540;8.364;2023-04-15T08:19:50;3.70;;;3.33;;
12519;SDS011;6325;49.540;8.364;2023-04-15T08:36:27;3.38;;;3.08;;
12519;SDS011;6325;49.540;8.364;2023-04-15T08:38:53;3.22;;;2.92;;
12519;SDS011;6325;49.540;8.364;2023-04-15T08:41:21;3.60;;;3.40;;
12519;SDS011;6325;49.540;8.364;2023-04-15T08:43:51;3.70;;;3.38;;
12519;SDS011;6325;49.540;8.364;2023-04-15T08:46:19;3.90;;;3.20;;
12519;SDS011;6325;49.540;8.364;2023-04-15T08:48:49;3.28;;;3.08;;
12519;SDS011;6325;49.540;8.364;2023-04-15T08:51:16;3.30;;;3.00;;
12519;SDS011;6325;49.540;8.364;2023-04-15T08:53:43;3.70;;;3.17;;
12519;SDS011;6325;49.540;8.364;2023-04-15T08:56:13;3.67;;;3.15;;
12519;SDS011;6325;49.540;8.364;2023-04-15T08:58:40;3.50;;;3.20;;
12519;SDS011;6325;49.540;8.364;2023-04-15T09:01:08;3.80;;;3.50;;
12519;SDS011;6325;49.540;8.364;2023-04-15T09:03:37;3.33;;;3.03;;
12519;SDS011;6325;49.540;8.364;2023-04-15T09:06:06;3.53;;;3.22;;
12519;SDS011;6325;49.540;8.364;2023-04-15T09:08:33;3.30;;;3.10;;
12519;SDS011;6325;49.540;8.364;2023-04-15T09:11:00;3.60;;;3.30;;
12519;SDS011;6325;49.540;8.364;2023-04-15T09:13:28;3.35;;;3.15;;
12519;SDS011;6325;49.540;8.364;2023-04-15T09:15:55;3.67;;;3.37;;
12519;SDS011;6325;49.540;8.364;2023-04-15T09:18:29;3.40;;;3.20;;
12519;SDS011;6325;49.540;8.364;2023-04-15T09:21:03;3.77;;;3.47;;
12519;SDS011;6325;49.540;8.364;2023-04-15T09:23:34;3.47;;;3.28;;
12519;SDS011;6325;49.540;8.364;2023-04-15T09:26:02;3.90;;;3.60;;
12519;SDS011;6325;49.540;8.364;2023-04-15T09:28:29;3.92;;;3.63;;
12519;SDS011;6325;49.540;8.364;2023-04-15T09:30:56;3.70;;;3.40;;
12519;SDS011;6325;49.540;8.364;2023-04-15T09:33:24;3.40;;;3.20;;
12519;SDS011;6325;49.540;8.364;2023-04-15T09:35:55;3.60;;;3.30;;
12519;SDS011;6325;49.540;8.364;2023-04-15T09:38:24;3.35;;;3.15;;
12519;SDS011;6325;49.540;8.364;2023-04-15T09:40:52;3.60;;;3.30;;
12519;SDS011;6325;49.540;8.364;2023-04-15T09:43:20;3.10;;;2.90;;
12519;SDS011;6325;49.540;8.364;2023-04-15T09:45:47;3.75;;;3.28;;
12519;SDS011;6325;49.540;8.364;2023-04-15T09:48:16;3.80;;;3.50;;
12519;SDS011;6325;49.540;8.364;2023-04-15T09:50:46;3.63;;;3.33;;
12519;SDS011;6325;49.540;8.364;2023-04-15T09:53:17;4.00;;;3.58;;
12519;SDS011;6325;49.540;8.364;2023-04-15T09:55:46;3.55;;;3.30;;
12519;SDS011;6325;49.540;8.364;2023-04-15T09:58:20;4.30;;;3.90;;
12519;SDS011;6325;49.540;8.364;2023-04-15T10:00:50;4.00;;;3.70;;
12519;SDS011;6325;49.540;8.364;2023-04-15T10:03:19;3.88;;;3.58;;
12519;SDS011;6325;49.540;8.364;2023-04-15T10:05:47;3.72;;;3.45;;
12519;SDS011;6325;49.540;8.364;2023-04-15T10:08:16;3.78;;;3.47;;
12519;SDS011;6325;49.540;8.364;2023-04-15T10:10:45;4.53;;;3.60;;
12519;SDS011;6325;49.540;8.364;2023-04-15T10:13:12;4.25;;;3.95;;
12519;SDS011;6325;49.540;8.364;2023-04-15T10:15:44;4.10;;;3.80;;
12519;SDS011;6325;49.540;8.364;2023-04-15T10:18:15;3.70;;;3.40;;
12519;SDS011;6325;49.540;8.364;2023-04-15T10:20:44;3.70;;;3.40;;
12519;SDS011;6325;49.540;8.364;2023-04-15T10:23:12;3.65;;;3.35;;
12519;SDS011;6325;49.540;8.364;2023-04-15T10:25:42;3.83;;;3.50;;
12519;SDS011;6325;49.540;8.364;2023-04-15T10:28:11;3.90;;;3.60;;
12519;SDS011;6325;49.540;8.364;2023-04-15T10:30:38;4.30;;;4.00;;
12519;SDS011;6325;49.540;8.364;2023-04-15T10:33:07;4.30;;;4.00;;
12519;SDS011;6325;49.540;8.364;2023-04-15T10:35:35;4.30;;;3.95;;
12519;SDS011;6325;49.540;8.364;2023-04-15T10:38:16;4.10;;;3.80;;
12519;SDS011;6325;49.540;8.364;2023-04-15T10:41:04;3.90;;;3.60;;
12519;SDS011;6325;49.540;8.364;2023-04-15T10:43:38;3.20;;;3.00;;
12519;SDS011;6325;49.540;8.364;2023-04-15T10:46:06;3.67;;;3.38;;
12519;SDS011;6325;49.540;8.364;2023-04-15T10:48:34;3.88;;;3.58;;
12519;SDS011;6325;49.540;8.364;2023-04-15T10:51:01;3.70;;;3.40;;
12519;SDS011;6325;49.540;8.364;2023-04-15T10:53:29;3.47;;;3.22;;
12519;SDS011;6325;49.540;8.364;2023-04-15T10:55:56;3.75;;;3.45;;
12519;SDS011;6325;49.540;8.364;2023-04-15T10:58:24;3.60;;;3.37;;
12519;SDS011;6325;49.540;8.364;2023-04-15T11:00:52;4.33;;;4.00;;
12519;SDS011;6325;49.540;8.364;2023-04-15T11:03:33;3.47;;;3.28;;
12519;SDS011;6325;49.540;8.364;2023-04-15T11:06:04;3.03;;;2.83;;
12519;SDS011;6325;49.540;8.364;2023-04-15T11:11:23;2.67;;;2.47;;
12519;SDS011;6325;49.540;8.364;2023-04-15T11:14:04;3.30;;;2.70;;
12519;SDS011;6325;49.540;8.364;2023-04-15T11:16:41;2.73;;;2.00;;
12519;SDS011;6325;49.540;8.364;2023-04-15T11:19:10;3.42;;;2.20;;
12519;SDS011;6325;49.540;8.364;2023-04-15T11:21:37;2.00;;;1.80;;
12519;SDS011;6325;49.540;8.364;2023-04-15T11:24:04;2.43;;;2.10;;
12519;SDS011;6325;49.540;8.364;2023-04-15T11:26:31;2.35;;;2.00;;
12519;SDS011;6325;49.540;8.364;2023-04-15T11:28:58;2.33;;;2.13;;
12519;SDS011;6325;49.540;8.364;2023-04-15T11:31:25;2.40;;;2.20;;
12519;SDS011;6325;49.540;8.364;2023-04-15T11:33:55;2.40;;;2.20;;
12519;SDS011;6325;49.540;8.364;2023-04-15T11:36:27;2.28;;;2.08;;
12519;SDS011;6325;49.540;8.364;2023-04-15T11:38:56;2.20;;;2.00;;
12519;SDS011;6325;49.540;8.364;2023-04-15T11:41:24;2.60;;;2.30;;
12519;SDS011;6325;49.540;8.364;2023-04-15T11:43:51;2.35;;;1.90;;
12519;SDS011;6325;49.540;8.364;2023-04-15T11:46:18;2.30;;;2.10;;
12519;SDS011;6325;49.540;8.364;2023-04-15T11:48:45;2.00;;;1.90;;
12519;SDS011;6325;49.540;8.364;2023-04-15T11:51:12;2.58;;;2.17;;
12519;SDS011;6325;49.540;8.364;2023-04-15T11:53:42;2.28;;;2.08;;
12519;SDS011;6325;49.540;8.364;2023-04-15T11:56:10;2.40;;;2.20;;
12519;SDS011;6325;49.540;8.364;2023-04-15T11:58:42;2.55;;;1.80;;
12519;SDS011;6325;49.540;8.364;2023-04-15T12:01:10;1.70;;;1.60;;
12519;SDS011;6325;49.540;8.364;2023-04-15T12:03:38;2.90;;;1.57;;
12519;SDS011;6325;49.540;8.364;2023-04-15T12:06:14;1.85;;;1.75;;
12519;SDS011;6325;49.540;8.364;2023-04-15T12:08:51;1.63;;;1.52;;
12519;SDS011;6325;49.540;8.364;2023-04-15T12:11:26;2.00;;;1.70;;
12519;SDS011;6325;49.540;8.364;2023-04-15T12:13:58;1.75;;;1.65;;
12519;SDS011;6325;49.540;8.364;2023-04-15T12:16:29;1.50;;;1.40;;
12519;SDS011;6325;49.540;8.364;2023-04-15T12:18:57;1.45;;;1.35;;
12519;SDS011;6325;49.540;8.364;2023-04-15T12:21:26;1.30;;;1.20;;
12519;SDS011;6325;49.540;8.364;2023-04-15T12:23:56;1.43;;;1.20;;
12519;SDS011;6325;49.540;8.364;2023-04-15T12:26:26;1.10;;;1.00;;
12519;SDS011;6325;49.540;8.364;2023-04-15T12:28:58;1.00;;;0.90;;
12519;SDS011;6325;49.540;8.364;2023-04-15T12:31:28;0.80;;;0.80;;
12519;SDS011;6325;49.540;8.364;2023-04-15T12:33:56;0.73;;;0.73;;
12519;SDS011;6325;49.540;8.364;2023-04-15T12:36:23;1.13;;;0.80;;
12519;SDS011;6325;49.540;8.364;2023-04-15T12:38:50;0.90;;;0.80;;
12519;SDS011;6325;49.540;8.364;2023-04-15T12:41:19;1.13;;;0.85;;
12519;SDS011;6325;49.540;8.364;2023-04-15T12:43:49;0.60;;;0.60;;
12519;SDS011;6325;49.540;8.364;2023-04-15T12:46:16;1.13;;;0.80;;
12519;SDS011;6325;49.540;8.364;2023-04-15T12:48:44;0.65;;;0.65;;
12519;SDS011;6325;49.540;8.364;2023-04-15T12:51:12;1.15;;;0.68;;
12519;SDS011;6325;49.540;8.364;2023-04-15T12:53:43;0.80;;;0.60;;
12519;SDS011;6325;49.540;8.364;2023-04-15T12:56:13;0.60;;;0.60;;
12519;SDS011;6325;49.540;8.364;2023-04-15T12:58:45;0.88;;;0.68;;
12519;SDS011;6325;49.540;8.364;2023-04-15T13:01:11;0.80;;;0.53;;
12519;SDS011;6325;49.540;8.364;2023-04-15T13:03:39;0.63;;;0.63;;
12519;SDS011;6325;49.540;8.364;2023-04-15T13:06:09;0.50;;;0.50;;
12519;SDS011;6325;49.540;8.364;2023-04-15T13:08:36;0.60;;;0.43;;
12519;SDS011;6325;49.540;8.364;2023-04-15T13:11:03;0.50;;;0.50;;
12519;SDS011;6325;49.540;8.364;2023-04-15T13:13:33;0.50;;;0.50;;
12519;SDS011;6325;49.540;8.364;2023-04-15T13:16:03;0.63;;;0.50;;
12519;SDS011;6325;49.540;8.364;2023-04-15T13:18:31;0.52;;;0.40;;
12519;SDS011;6325;49.540;8.364;2023-04-15T13:20:58;0.52;;;0.52;;
12519;SDS011;6325;49.540;8.364;2023-04-15T13:23:26;0.50;;;0.50;;
12519;SDS011;6325;49.540;8.364;2023-04-15T13:25:55;0.50;;;0.50;;
12519;SDS011;6325;49.540;8.364;2023-04-15T13:28:23;0.50;;;0.47;;
12519;SDS011;6325;49.540;8.364;2023-04-15T13:30:51;0.47;;;0.40;;
12519;SDS011;6325;49.540;8.364;2023-04-15T13:33:19;0.70;;;0.50;;
12519;SDS011;6325;49.540;8.364;2023-04-15T13:35:46;0.40;;;0.40;;
12519;SDS011;6325;49.540;8.364;2023-04-15T13:38:14;0.60;;;0.60;;
12519;SDS011;6325;49.540;8.364;2023-04-15T13:40:41;0.70;;;0.50;;
12519;SDS011;6325;49.540;8.364;2023-04-15T13:43:11;0.50;;;0.50;;
12519;SDS011;6325;49.540;8.364;2023-04-15T13:45:38;1.05;;;0.60;;
12519;SDS011;6325;49.540;8.364;2023-04-15T13:48:06;0.50;;;0.50;;
12519;SDS011;6325;49.540;8.364;2023-04-15T13:50:34;0.60;;;0.60;;
12519;SDS011;6325;49.540;8.364;2023-04-15T13:53:05;0.60;;;0.60;;
12519;SDS011;6325;49.540;8.364;2023-04-15T13:55:32;1.33;;;0.60;;
12519;SDS011;6325;49.540;8.364;2023-04-15T13:58:06;0.60;;;0.60;;
12519;SDS011;6325;49.540;8.364;2023-04-15T14:00:34;0.52;;;0.52;;
12519;SDS011;6325;49.540;8.364;2023-04-15T14:03:01;0.70;;;0.60;;
12519;SDS011;6325;49.540;8.364;2023-04-15T14:05:29;0.70;;;0.70;;
12519;SDS011;6325;49.540;8.364;2023-04-15T14:07:58;0.60;;;0.60;;
12519;SDS011;6325;49.540;8.364;2023-04-15T14:10:25;1.07;;;0.80;;
12519;SDS011;6325;49.540;8.364;2023-04-15T14:12:52;0.70;;;0.70;;
12519;SDS011;6325;49.540;8.364;2023-04-15T14:15:19;0.77;;;0.77;;
12519;SDS011;6325;49.540;8.364;2023-04-15T14:17:46;1.38;;;0.80;;
12519;SDS011;6325;49.540;8.364;2023-04-15T14:20:14;0.70;;;0.70;;
12519;SDS011;6325;49.540;8.364;2023-04-15T14:22:43;0.85;;;0.85;;
12519;SDS011;6325;49.540;8.364;2023-04-15T14:25:13;0.70;;;0.70;;
12519;SDS011;6325;49.540;8.364;2023-04-15T14:27:40;1.00;;;0.80;;
12519;SDS011;6325;49.540;8.364;2023-04-15T14:30:09;0.90;;;0.70;;
12519;SDS011;6325;49.540;8.364;2023-04-15T14:32:40;0.82;;;0.82;;
12519;SDS011;6325;49.540;8.364;2023-04-15T14:35:08;0.90;;;0.90;;
12519;SDS011;6325;49.540;8.364;2023-04-15T14:37:35;1.80;;;1.00;;
12519;SDS011;6325;49.540;8.364;2023-04-15T14:40:18;0.93;;;0.93;;
12519;SDS011;6325;49.540;8.364;2023-04-15T14:42:45;1.30;;;1.20;;
12519;SDS011;6325;49.540;8.364;2023-04-15T14:45:17;1.00;;;1.00;;
12519;SDS011;6325;49.540;8.364;2023-04-15T14:47:46;1.00;;;1.00;;
12519;SDS011;6325;49.540;8.364;2023-04-15T14:50:13;0.85;;;0.85;;
12519;SDS011;6325;49.540;8.364;2023-04-15T14:52:40;0.90;;;0.90;;
12519;SDS011;6325;49.540;8.364;2023-04-15T14:55:08;1.10;;;1.10;;
12519;SDS011;6325;49.540;8.364;2023-04-15T14:57:38;1.00;;;1.00;;
12519;SDS011;6325;49.540;8.364;2023-04-15T15:00:06;1.17;;;1.08;;
12519;SDS011;6325;49.540;8.364;2023-04-15T15:02:35;0.93;;;0.90;;
12519;SDS011;6325;49.540;8.364;2023-04-15T15:05:04;0.90;;;0.90;;
12519;SDS011;6325;49.540;8.364;2023-04-15T15:07:31;0.80;;;0.80;;
12519;SDS011;6325;49.540;8.364;2023-04-15T15:10:01;0.90;;;0.90;;
12519;SDS011;6325;49.540;8.364;2023-04-15T15:12:28;0.88;;;0.88;;
12519;SDS011;6325;49.540;8.364;2023-04-15T15:14:56;1.02;;;0.90;;
12519;SDS011;6325;49.540;8.364;2023-04-15T15:17:23;0.90;;;0.90;;
12519;SDS011;6325;49.540;8.364;2023-04-15T15:19:50;0.80;;;0.80;;
12519;SDS011;6325;49.540;8.364;2023-04-15T15:22:18;0.75;;;0.75;;
12519;SDS011;6325;49.540;8.364;2023-04-15T15:24:45;1.00;;;1.00;;
12519;SDS011;6325;49.540;8.364;2023-04-15T15:27:12;0.80;;;0.80;;
12519;SDS011;6325;49.540;8.364;2023-04-15T15:29:39;0.80;;;0.80;;
12519;SDS011;6325;49.540;8.364;2023-04-15T15:32:11;0.90;;;0.90;;
12519;SDS011;6325;49.540;8.364;2023-04-15T15:34:38;1.00;;;1.00;;
12519;SDS011;6325;49.540;8.364;2023-04-15T15:37:05;0.88;;;0.88;;
12519;SDS011;6325;49.540;8.364;2023-04-15T15:39:32;0.90;;;0.90;;
12519;SDS011;6325;49.540;8.364;2023-04-15T15:42:01;0.90;;;0.90;;
12519;SDS011;6325;49.540;8.364;2023-04-15T15:44:28;0.90;;;0.90;;
12519;SDS011;6325;49.540;8.364;2023-04-15T15:46:55;0.90;;;0.90;;
12519;SDS011;6325;49.540;8.364;2023-04-15T15:49:23;1.10;;;1.08;;
12519;SDS011;6325;49.540;8.364;2023-04-15T15:51:53;0.90;;;0.90;;
12519;SDS011;6325;49.540;8.364;2023-04-15T15:54:21;1.20;;;1.10;;
12519;SDS011;6325;49.540;8.364;2023-04-15T15:56:49;1.10;;;1.10;;
12519;SDS011;6325;49.540;8.364;2023-04-15T15:59:16;1.00;;;1.00;;
12519;SDS011;6325;49.540;8.364;2023-04-15T16:01:43;1.20;;;1.20;;
12519;SDS011;6325;49.540;8.364;2023-04-15T16:04:10;1.00;;;1.00;;
12519;SDS011;6325;49.540;8.364;2023-04-15T16:06:44;1.20;;;1.20;;
12519;SDS011;6325;49.540;8.364;2023-04-15T16:09:15;1.20;;;1.20;;
12519;SDS011;6325;49.540;8.364;2023-04-15T16:11:42;1.15;;;1.15;;
12519;SDS011;6325;49.540;8.364;2023-04-15T16:14:13;1.10;;;1.10;;
12519;SDS011;6325;49.540;8.364;2023-04-15T16:16:40;1.23;;;1.23;;
12519;SDS011;6325;49.540;8.364;2023-04-15T16:19:06;1.20;;;1.20;;
12519;SDS011;6325;49.540;8.364;2023-04-15T16:21:34;1.25;;;1.25;;
12519;SDS011;6325;49.540;8.364;2023-04-15T16:24:05;1.10;;;1.10;;
12519;SDS011;6325;49.540;8.364;2023-04-15T16:26:33;1.25;;;1.25;;
12519;SDS011;6325;49.540;8.364;2023-04-15T16:29:03;1.30;;;1.30;;